Terminal Aerodrome Forecast
Issued by NWS Sterling, VA

Home | Current Version | Previous Version | Text Only | Print | Product List | Glossary On
Versions: 1 2 3 4 5 6 7 8 9 10 11 12 13 14 15 16 17 18 19 20 21 22 23 24
000
FTUS41 KLWX 221300 AAB
TAFBWI
TAF AMD
KBWI 221324Z 2213/2318 34010G15KT 3SM -RA BR SCT010 BKN020 OVC040
      TEMPO 2213/2214 1SM +RA SCT008 BKN010 OVC025
     FM221400 35014G24KT 3SM -RA BR SCT010 BKN020 OVC040
     FM221600 35016G24KT 6SM -SHRA OVC025
     FM222100 34018G27KT P6SM OVC030
     FM222300 34019G29KT P6SM OVC040=

USA.gov is the U.S. government's official web portal to all federal, state and local government web resources and services.